MSC Michela — CQID5 — position and weather

sailwx.info

Track history (hours):
 
Tides and Currents Weather Stations Pressure Air Temp Water Temp Dewpoint Dewpoint Depression Visibility Wind Speed Wind Dir Waves Ship Positions

MSC Michela

Last reported at 2018-Feb-13 11:18 UTC. Time now 2018-Feb-21 06:57 UTC.
Position N 32°20' W 117°31'.

Length 300 m; draft 9.9 m.

Type: Ship (hazmat cat A). MMSI: 255805929.

Date/timePositionNaut miles runAvg speedWind from/ knotsBaromVisibWave heightAir tempDewpointWater temp
2018-Feb-13 11:18N 32°20' W 117°31'415.5
2018-Feb-13 11:00N 32°25' W 117°32'815.6
2018-Feb-13 10:30N 32°32' W 117°35'917.8
2018-Feb-13 10:00N 32°40' W 117°40'918.0
2018-Feb-13 09:30N 32°48' W 117°46'918.1
2018-Feb-13 09:00N 32°55' W 117°52'918.0
2018-Feb-13 08:31N 33°03' W 117°58'612.3
2018-Feb-13 08:00N 33°08' W 118°01'611.5
2018-Feb-13 07:30N 33°13' W 118°04'611.6
2018-Feb-13 07:00N 33°19' W 118°06'2111.0
2018-Feb-13 05:08N 33°39' W 118°13'1 9.9
2018-Feb-13 05:00N 33°40' W 118°12'4 7.7
2018-Feb-13 04:31N 33°43' W 118°11'3 6.0
2018-Feb-13 04:00N 33°45' W 118°14'0 0.8
2018-Feb-13 03:30N 33°45' W 118°14'0 0.0
2018-Feb-13 02:59N 33°45' W 118°14'0 0.0
2018-Feb-13 02:29N 33°45' W 118°14'0 0.0
2018-Feb-13 01:59N 33°45' W 118°14'0 0.0
2018-Feb-13 01:29N 33°45' W 118°14'0 0.0
2018-Feb-13 00:59N 33°45' W 118°14'0 0.0
2018-Feb-13 00:29N 33°45' W 118°14'0 0.0
2018-Feb-12 23:59N 33°45' W 118°14'0 0.0
2018-Feb-12 23:29N 33°45' W 118°14'0 0.0
2018-Feb-12 22:59N 33°45' W 118°14'0 0.0
2018-Feb-12 22:29N 33°45' W 118°14'0 0.0
2018-Feb-12 21:59N 33°45' W 118°14'0 0.0
2018-Feb-12 21:29N 33°45' W 118°14'0 0.0
2018-Feb-12 20:59N 33°45' W 118°14'0 0.0
2018-Feb-12 20:29N 33°45' W 118°14'0 0.0
2018-Feb-12 19:59N 33°45' W 118°14'0 0.0
2018-Feb-12 19:29N 33°45' W 118°14'0 0.0
2018-Feb-12 18:59N 33°45' W 118°14'0 0.0
2018-Feb-12 18:29N 33°45' W 118°14'0 0.0
2018-Feb-12 17:59N 33°45' W 118°14'0 0.0
2018-Feb-12 17:29N 33°45' W 118°14'0 0.0
2018-Feb-12 16:59N 33°45' W 118°14'0 0.0
2018-Feb-12 16:29N 33°45' W 118°14'0 0.0
2018-Feb-12 15:59N 33°45' W 118°14'0 0.0
2018-Feb-12 15:17N 33°45' W 118°14'0 0.0
2018-Feb-12 14:59N 33°45' W 118°14'0 0.0
2018-Feb-12 14:29N 33°45' W 118°14'0 0.0
2018-Feb-12 13:59N 33°45' W 118°14'1 2.4
2018-Feb-12 13:30N 33°45' W 118°13'4 8.2
2018-Feb-12 13:00N 33°41' W 118°11'4 7.9
2018-Feb-12 12:30N 33°38' W 118°13'4 7.3
2018-Feb-12 12:00N 33°36' W 118°17'11 9.5
2018-Feb-12 10:50N 33°40' W 118°29'3 9.9
2018-Feb-12 10:30N 33°42' W 118°33'5 9.9
2018-Feb-12 10:01N 33°44' W 118°38'510.0
2018-Feb-12 09:30N 33°47' W 118°43'510.0
2018-Feb-12 09:00N 33°49' W 118°48'510.1
2018-Feb-12 08:30N 33°52' W 118°54'510.2
2018-Feb-12 08:01N 33°54' W 118°59'510.1
2018-Feb-12 07:31N 33°57' W 119°04'510.4
2018-Feb-12 07:00N 33°59' W 119°10'510.4
2018-Feb-12 06:30N 34°02' W 119°15'5 9.5
2018-Feb-12 06:00N 34°03' W 119°21'5 9.3
2018-Feb-12 05:25N 34°05' W 119°27'4 9.3
2018-Feb-12 04:58N 34°06' W 119°32'4 9.1
2018-Feb-12 04:30N 34°07' W 119°37'4 9.1
2018-Feb-12 04:00N 34°08' W 119°42'5 9.2
2018-Feb-12 03:25N 34°10' W 119°48'4 9.3
2018-Feb-12 02:57N 34°11' W 119°53'4 9.3
2018-Feb-12 02:30N 34°12' W 119°58'5 9.6
2018-Feb-12 02:00N 34°13' W 120°04'610.7
2018-Feb-12 01:29N 34°15' W 120°10'611.3
2018-Feb-12 00:57N 34°16' W 120°17'510.9
2018-Feb-12 00:30N 34°18' W 120°23'510.8
2018-Feb-12 00:00N 34°19' W 120°29'610.9
2018-Feb-11 23:29N 34°21' W 120°36'510.8
2018-Feb-11 23:01N 34°22' W 120°42'610.8
2018-Feb-11 22:27N 34°24' W 120°49'510.8
2018-Feb-11 21:59N 34°25' W 120°55'4 7.6
2018-Feb-11 21:29N 34°26' W 120°59'610.1
2018-Feb-11 20:56N 34°31' W 121°02'510.8
2018-Feb-11 20:30N 34°35' W 121°05'510.7
2018-Feb-11 20:00N 34°39' W 121°08'510.9
2018-Feb-11 19:30N 34°44' W 121°12'611.1
2018-Feb-11 19:00N 34°49' W 121°15'511.0
2018-Feb-11 18:31N 34°54' W 121°19'611.0
2018-Feb-11 18:00N 34°59' W 121°22'611.0
2018-Feb-11 17:28N 35°03' W 121°26'511.1
2018-Feb-11 17:00N 35°08' W 121°29'611.0
2018-Feb-11 16:30N 35°13' W 121°32'510.9
2018-Feb-11 16:01N 35°17' W 121°35'611.1
2018-Feb-11 15:30N 35°22' W 121°39'510.6
2018-Feb-11 15:00N 35°27' W 121°42'510.3
2018-Feb-11 14:30N 35°31' W 121°45'510.3
2018-Feb-11 14:00N 35°36' W 121°49'510.4
2018-Feb-11 13:31N 35°40' W 121°52'510.4
2018-Feb-11 13:00N 35°45' W 121°55'510.6
2018-Feb-11 12:31N 35°49' W 121°58'1810.9
2018-Feb-11 10:51N 36°05' W 122°10'411.1
2018-Feb-11 10:29N 36°09' W 122°12'510.9
2018-Feb-11 10:01N 36°13' W 122°15'510.9
2018-Feb-11 09:31N 36°18' W 122°19'511.0
2018-Feb-11 09:01N 36°23' W 122°21'611.1
2018-Feb-11 08:31N 36°28' W 122°24'510.9
2018-Feb-11 08:01N 36°33' W 122°26'510.9
2018-Feb-11 07:31N 36°38' W 122°29'611.4
2018-Feb-11 07:00N 36°43' W 122°31'611.3
2018-Feb-11 06:30N 36°49' W 122°34'510.9
2018-Feb-11 06:01N 36°54' W 122°36'611.6
2018-Feb-11 05:30N 36°59' W 122°39'612.8
2018-Feb-11 05:00N 37°05' W 122°41'612.5
2018-Feb-11 04:30N 37°11' W 122°44'612.7
2018-Feb-11 04:01N 37°17' W 122°44'713.1
2018-Feb-11 03:30N 37°24' W 122°44'612.9
2018-Feb-11 03:00N 37°30' W 122°44'713.4
2018-Feb-11 02:30N 37°37' W 122°44'714.6
2018-Feb-11 02:00N 37°44' W 122°40'5 9.8
2018-Feb-11 01:30N 37°47' W 122°35'816.2
2018-Feb-11 01:00N 37°51' W 122°26'612.1
2018-Feb-11 00:31N 37°48' W 122°19'0 0.1
2018-Feb-10 23:59N 37°48' W 122°19'0 0.0
2018-Feb-10 23:29N 37°48' W 122°19'0 0.0
2018-Feb-10 22:59N 37°48' W 122°19'0 0.0
2018-Feb-10 22:29N 37°48' W 122°19'0 0.0
2018-Feb-10 21:59N 37°48' W 122°19'0 0.0
2018-Feb-10 21:29N 37°48' W 122°19'0 0.0
2018-Feb-10 20:59N 37°48' W 122°19'0 0.0
2018-Feb-10 20:29N 37°48' W 122°19'0 0.0
2018-Feb-10 19:59N 37°48' W 122°19'0 0.0
2018-Feb-10 19:26N 37°48' W 122°19'0 0.0
2018-Feb-10 18:59N 37°48' W 122°19'0 0.0
2018-Feb-10 18:29N 37°48' W 122°19'0 0.0
2018-Feb-10 17:59N 37°48' W 122°19'0 0.0
2018-Feb-10 17:29N 37°48' W 122°19'0 0.0
2018-Feb-10 16:59N 37°48' W 122°19'0 0.0
2018-Feb-10 16:29N 37°48' W 122°19'0 0.0
2018-Feb-10 15:59N 37°48' W 122°19'0 0.0
2018-Feb-10 15:29N 37°48' W 122°19'0 0.0
2018-Feb-10 15:01N 37°48' W 122°19'1 1.1
2018-Feb-10 14:30N 37°48' W 122°19'1 2.2
2018-Feb-10 14:00N 37°48' W 122°17'1 1.9
2018-Feb-10 13:30N 37°48' W 122°19'3 6.9
2018-Feb-10 13:00N 37°48' W 122°23'3 5.7
2018-Feb-10 12:30N 37°49' W 122°26'510.6
2018-Feb-10 12:00N 37°47' W 122°33'713.7
2018-Feb-10 11:30N 37°46' W 122°41'510.6
2018-Feb-10 11:00N 37°47' W 122°48'510.8
2018-Feb-10 10:30N 37°50' W 122°54'611.9
2018-Feb-10 10:00N 37°53' W 123°00'611.9
2018-Feb-10 09:30N 37°56' W 123°07'611.9
2018-Feb-10 09:00N 37°59' W 123°13'612.0
2018-Feb-10 08:30N 38°04' W 123°18'612.0
2018-Feb-10 08:00N 38°08' W 123°23'5 9.9
2018-Feb-10 07:30N 38°13' W 123°26'713.4
2018-Feb-10 07:00N 38°19' W 123°30'713.8
2018-Feb-10 06:30N 38°25' W 123°34'713.8
2018-Feb-10 06:00N 38°31' W 123°38'713.9
2018-Feb-10 05:31N 38°37' W 123°42'714.2
2018-Feb-10 05:00N 38°43' W 123°46'713.8
2018-Feb-10 04:30N 38°50' W 123°50'40613.8
2018-Feb-08 23:00N 45°31' W 125°07'714.4
2018-Feb-08 22:30N 45°39' W 125°07'2114.2
2018-Feb-08 21:00N 45°60' W 125°09'1414.3
2018-Feb-08 20:00N 46°14' W 125°10'1414.1
2018-Feb-08 19:00N 46°28' W 125°11'1414.2
2018-Feb-08 18:00N 46°42' W 125°12'10913.6
2018-Feb-08 10:00N 48°31' W 124°55'2113.9
2018-Feb-08 08:30N 48°25' W 124°24'2114.2
2018-Feb-08 07:00N 48°17' W 123°55'5413.4
2018-Feb-08 03:00N 48°02' W 122°37'917.0
2018-Feb-08 02:30N 47°55' W 122°29'1817.6
2018-Feb-08 01:30N 47°38' W 122°26'4 8.2
2018-Feb-08 01:00N 47°36' W 122°21'0 0.0
2018-Feb-08 00:30N 47°36' W 122°21'0 0.0
2018-Feb-07 23:59N 47°36' W 122°21'0 0.0
2018-Feb-07 23:28N 47°36' W 122°21'0 0.0
2018-Feb-07 22:58N 47°36' W 122°21'0 0.0
2018-Feb-07 22:25N 47°36' W 122°21'0 0.0
2018-Feb-07 21:55N 47°36' W 122°21'0 0.0
2018-Feb-07 21:25N 47°36' W 122°21'0 0.0
2018-Feb-07 09:28N 47°36' W 122°21'0 0.0
2018-Feb-07 08:58N 47°36' W 122°21'0 0.0
2018-Feb-07 08:28N 47°36' W 122°21'0 0.0
2018-Feb-07 07:58N 47°36' W 122°21'0 0.0
2018-Feb-07 07:28N 47°36' W 122°21'0 0.0
2018-Feb-07 06:58N 47°36' W 122°21'0 0.0
2018-Feb-07 06:28N 47°36' W 122°21'0 0.0
2018-Feb-07 05:58N 47°36' W 122°21'0 0.0
2018-Feb-07 05:28N 47°36' W 122°21'0 0.0
2018-Feb-07 04:58N 47°36' W 122°21'0 0.0
2018-Feb-07 03:40N 47°36' W 122°21'0 0.0
2018-Feb-07 03:28N 47°36' W 122°21'0 0.0
2018-Feb-07 02:49N 47°36' W 122°21'0 0.0
2018-Feb-07 02:13N 47°36' W 122°21'0 0.0
2018-Feb-07 01:58N 47°36' W 122°21'0 0.2
2018-Feb-07 01:30N 47°36' W 122°21'2 3.8
2018-Feb-07 01:00N 47°37' W 122°23'612.9
2018-Feb-07 00:30N 47°42' W 122°27'919.0
2018-Feb-07 00:00N 47°52' W 122°29'917.5
2018-Feb-06 23:30N 47°59' W 122°36'917.1
2018-Feb-06 22:58N 48°07' W 122°42'817.4
2018-Feb-06 22:30N 48°11' W 122°53'918.6
2018-Feb-06 22:00N 48°12' W 123°06'1611.5
2018-Feb-06 20:39N 48°16' W 123°29'519.4
2018-Feb-06 20:23N 48°21' W 123°26'4 9.4
2018-Feb-06 19:55N 48°23' W 123°20'716.4
2018-Feb-06 19:30N 48°27' W 123°12'1020.0
2018-Feb-06 19:00N 48°37' W 123°14'815.5
2018-Feb-06 18:30N 48°44' W 123°09'815.7
2018-Feb-06 18:00N 48°51' W 123°02'918.0
2018-Feb-06 17:30N 48°57' W 123°11'4 8.1
2018-Feb-06 17:00N 49°01' W 123°09'0 0.1
2018-Feb-06 15:50N 49°01' W 123°09'0 0.0
2018-Feb-06 07:16N 49°01' W 123°09'0 0.0
2018-Feb-05 17:28N 49°01' W 123°09'0 0.0
2018-Feb-05 16:55N 49°01' W 123°09'0 0.0
2018-Feb-05 16:28N 49°01' W 123°09'0 0.0
2018-Feb-05 15:55N 49°01' W 123°09'0 0.0
2018-Feb-05 15:25N 49°01' W 123°09'0 0.0
2018-Feb-05 14:55N 49°01' W 123°09'0 0.0
2018-Feb-05 14:28N 49°01' W 123°09'0 0.0
2018-Feb-05 13:58N 49°01' W 123°09'4510.1
2018-Feb-05 09:30N 48°18' W 123°26'5 9.5
2018-Feb-05 09:01N 48°14' W 123°31'711.3
2018-Feb-05 08:25N 48°14' W 123°40'511.7
2018-Feb-05 08:00N 48°14' W 123°48'611.6
2018-Feb-05 07:29N 48°14' W 123°57'611.7
2018-Feb-05 07:01N 48°16' W 124°04'611.7
2018-Feb-05 06:31N 48°19' W 124°12'1211.9
2018-Feb-05 05:30N 48°24' W 124°29'612.1
2018-Feb-05 05:01N 48°26' W 124°37'612.0
2018-Feb-05 04:30N 48°29' W 124°45'612.1
2018-Feb-05 04:01N 48°29' W 124°54'611.4
2018-Feb-05 03:29N 48°25' W 125°02'612.3
2018-Feb-05 03:00N 48°20' W 125°06'712.6
2018-Feb-05 02:28N 48°14' W 125°09'812.4
2018-Feb-05 01:50N 48°06' W 125°13'7412.2
2018-Feb-04 19:48N 46°53' W 125°14'3 9.5
2018-Feb-04 19:31N 46°50' W 125°14'3 5.3
2018-Feb-04 18:59N 46°47' W 125°14'612.5
2018-Feb-04 18:30N 46°41' W 125°14'612.6
2018-Feb-04 18:00N 46°35' W 125°13'612.6
2018-Feb-04 17:31N 46°28' W 125°13'2512.5
2018-Feb-04 15:31N 46°03' W 125°11'612.9
2018-Feb-04 15:01N 45°57' W 125°10'612.5
2018-Feb-04 14:30N 45°51' W 125°10'612.5
2018-Feb-04 14:01N 45°44' W 125°09'612.4
2018-Feb-04 13:31N 45°38' W 125°09'612.4
2018-Feb-04 13:01N 45°32' W 125°08'612.4
2018-Feb-04 12:30N 45°26' W 125°08'612.4
2018-Feb-04 12:00N 45°19' W 125°07'712.2
2018-Feb-04 11:25N 45°12' W 125°07'1812.3
2018-Feb-04 09:59N 44°55' W 125°05'1312.3
2018-Feb-04 08:56N 44°42' W 125°04'3712.3
2018-Feb-04 05:58N 44°05' W 125°01'  
Track history (hours):
 
Tides and Currents Weather Stations Pressure Air Temp Water Temp Dewpoint Dewpoint Depression Visibility Wind Speed Wind Dir Waves Ship Positions

MSC Michela

Last reported at 2018-Feb-13 11:18 UTC. Time now 2018-Feb-21 06:57 UTC.
Position N 32°20' W 117°31'.

Length 300 m; draft 9.9 m.

Type: Ship (hazmat cat A). MMSI: 255805929.

Date/timePositionNaut miles runAvg speedWind from/ knotsBaromVisibWave heightAir tempDewpointWater temp
2018-Feb-13 11:18N 32°20' W 117°31'415.5
2018-Feb-13 11:00N 32°25' W 117°32'815.6
2018-Feb-13 10:30N 32°32' W 117°35'917.8
2018-Feb-13 10:00N 32°40' W 117°40'918.0
2018-Feb-13 09:30N 32°48' W 117°46'918.1
2018-Feb-13 09:00N 32°55' W 117°52'918.0
2018-Feb-13 08:31N 33°03' W 117°58'612.3
2018-Feb-13 08:00N 33°08' W 118°01'611.5
2018-Feb-13 07:30N 33°13' W 118°04'611.6
2018-Feb-13 07:00N 33°19' W 118°06'2111.0
2018-Feb-13 05:08N 33°39' W 118°13'1 9.9
2018-Feb-13 05:00N 33°40' W 118°12'4 7.7
2018-Feb-13 04:31N 33°43' W 118°11'3 6.0
2018-Feb-13 04:00N 33°45' W 118°14'0 0.8
2018-Feb-13 03:30N 33°45' W 118°14'0 0.0
2018-Feb-13 02:59N 33°45' W 118°14'0 0.0
2018-Feb-13 02:29N 33°45' W 118°14'0 0.0
2018-Feb-13 01:59N 33°45' W 118°14'0 0.0
2018-Feb-13 01:29N 33°45' W 118°14'0 0.0
2018-Feb-13 00:59N 33°45' W 118°14'0 0.0
2018-Feb-13 00:29N 33°45' W 118°14'0 0.0
2018-Feb-12 23:59N 33°45' W 118°14'0 0.0
2018-Feb-12 23:29N 33°45' W 118°14'0 0.0
2018-Feb-12 22:59N 33°45' W 118°14'0 0.0
2018-Feb-12 22:29N 33°45' W 118°14'0 0.0
2018-Feb-12 21:59N 33°45' W 118°14'0 0.0
2018-Feb-12 21:29N 33°45' W 118°14'0 0.0
2018-Feb-12 20:59N 33°45' W 118°14'0 0.0
2018-Feb-12 20:29N 33°45' W 118°14'0 0.0
2018-Feb-12 19:59N 33°45' W 118°14'0 0.0
2018-Feb-12 19:29N 33°45' W 118°14'0 0.0
2018-Feb-12 18:59N 33°45' W 118°14'0 0.0
2018-Feb-12 18:29N 33°45' W 118°14'0 0.0
2018-Feb-12 17:59N 33°45' W 118°14'0 0.0
2018-Feb-12 17:29N 33°45' W 118°14'0 0.0
2018-Feb-12 16:59N 33°45' W 118°14'0 0.0
2018-Feb-12 16:29N 33°45' W 118°14'0 0.0
2018-Feb-12 15:59N 33°45' W 118°14'0 0.0
2018-Feb-12 15:17N 33°45' W 118°14'0 0.0
2018-Feb-12 14:59N 33°45' W 118°14'0 0.0
2018-Feb-12 14:29N 33°45' W 118°14'0 0.0
2018-Feb-12 13:59N 33°45' W 118°14'1 2.4
2018-Feb-12 13:30N 33°45' W 118°13'4 8.2
2018-Feb-12 13:00N 33°41' W 118°11'4 7.9
2018-Feb-12 12:30N 33°38' W 118°13'4 7.3
2018-Feb-12 12:00N 33°36' W 118°17'11 9.5
2018-Feb-12 10:50N 33°40' W 118°29'3 9.9
2018-Feb-12 10:30N 33°42' W 118°33'5 9.9
2018-Feb-12 10:01N 33°44' W 118°38'510.0
2018-Feb-12 09:30N 33°47' W 118°43'510.0
2018-Feb-12 09:00N 33°49' W 118°48'510.1
2018-Feb-12 08:30N 33°52' W 118°54'510.2
2018-Feb-12 08:01N 33°54' W 118°59'510.1
2018-Feb-12 07:31N 33°57' W 119°04'510.4
2018-Feb-12 07:00N 33°59' W 119°10'510.4
2018-Feb-12 06:30N 34°02' W 119°15'5 9.5
2018-Feb-12 06:00N 34°03' W 119°21'5 9.3
2018-Feb-12 05:25N 34°05' W 119°27'4 9.3
2018-Feb-12 04:58N 34°06' W 119°32'4 9.1
2018-Feb-12 04:30N 34°07' W 119°37'4 9.1
2018-Feb-12 04:00N 34°08' W 119°42'5 9.2
2018-Feb-12 03:25N 34°10' W 119°48'4 9.3
2018-Feb-12 02:57N 34°11' W 119°53'4 9.3
2018-Feb-12 02:30N 34°12' W 119°58'5 9.6
2018-Feb-12 02:00N 34°13' W 120°04'610.7
2018-Feb-12 01:29N 34°15' W 120°10'611.3
2018-Feb-12 00:57N 34°16' W 120°17'510.9
2018-Feb-12 00:30N 34°18' W 120°23'510.8
2018-Feb-12 00:00N 34°19' W 120°29'610.9
2018-Feb-11 23:29N 34°21' W 120°36'510.8
2018-Feb-11 23:01N 34°22' W 120°42'610.8
2018-Feb-11 22:27N 34°24' W 120°49'510.8
2018-Feb-11 21:59N 34°25' W 120°55'4 7.6
2018-Feb-11 21:29N 34°26' W 120°59'610.1
2018-Feb-11 20:56N 34°31' W 121°02'510.8
2018-Feb-11 20:30N 34°35' W 121°05'510.7
2018-Feb-11 20:00N 34°39' W 121°08'510.9
2018-Feb-11 19:30N 34°44' W 121°12'611.1
2018-Feb-11 19:00N 34°49' W 121°15'511.0
2018-Feb-11 18:31N 34°54' W 121°19'611.0
2018-Feb-11 18:00N 34°59' W 121°22'611.0
2018-Feb-11 17:28N 35°03' W 121°26'511.1
2018-Feb-11 17:00N 35°08' W 121°29'611.0
2018-Feb-11 16:30N 35°13' W 121°32'510.9
2018-Feb-11 16:01N 35°17' W 121°35'611.1
2018-Feb-11 15:30N 35°22' W 121°39'510.6
2018-Feb-11 15:00N 35°27' W 121°42'510.3
2018-Feb-11 14:30N 35°31' W 121°45'510.3
2018-Feb-11 14:00N 35°36' W 121°49'510.4
2018-Feb-11 13:31N 35°40' W 121°52'510.4
2018-Feb-11 13:00N 35°45' W 121°55'510.6
2018-Feb-11 12:31N 35°49' W 121°58'1810.9
2018-Feb-11 10:51N 36°05' W 122°10'411.1
2018-Feb-11 10:29N 36°09' W 122°12'510.9
2018-Feb-11 10:01N 36°13' W 122°15'510.9
2018-Feb-11 09:31N 36°18' W 122°19'511.0
2018-Feb-11 09:01N 36°23' W 122°21'611.1
2018-Feb-11 08:31N 36°28' W 122°24'510.9
2018-Feb-11 08:01N 36°33' W 122°26'510.9
2018-Feb-11 07:31N 36°38' W 122°29'611.4
2018-Feb-11 07:00N 36°43' W 122°31'611.3
2018-Feb-11 06:30N 36°49' W 122°34'510.9
2018-Feb-11 06:01N 36°54' W 122°36'611.6
2018-Feb-11 05:30N 36°59' W 122°39'612.8
2018-Feb-11 05:00N 37°05' W 122°41'612.5
2018-Feb-11 04:30N 37°11' W 122°44'612.7
2018-Feb-11 04:01N 37°17' W 122°44'713.1
2018-Feb-11 03:30N 37°24' W 122°44'612.9
2018-Feb-11 03:00N 37°30' W 122°44'713.4
2018-Feb-11 02:30N 37°37' W 122°44'714.6
2018-Feb-11 02:00N 37°44' W 122°40'5 9.8
2018-Feb-11 01:30N 37°47' W 122°35'816.2
2018-Feb-11 01:00N 37°51' W 122°26'612.1
2018-Feb-11 00:31N 37°48' W 122°19'0 0.1
2018-Feb-10 23:59N 37°48' W 122°19'0 0.0
2018-Feb-10 23:29N 37°48' W 122°19'0 0.0
2018-Feb-10 22:59N 37°48' W 122°19'0 0.0
2018-Feb-10 22:29N 37°48' W 122°19'0 0.0
2018-Feb-10 21:59N 37°48' W 122°19'0 0.0
2018-Feb-10 21:29N 37°48' W 122°19'0 0.0
2018-Feb-10 20:59N 37°48' W 122°19'0 0.0
2018-Feb-10 20:29N 37°48' W 122°19'0 0.0
2018-Feb-10 19:59N 37°48' W 122°19'0 0.0
2018-Feb-10 19:26N 37°48' W 122°19'0 0.0
2018-Feb-10 18:59N 37°48' W 122°19'0 0.0
2018-Feb-10 18:29N 37°48' W 122°19'0 0.0
2018-Feb-10 17:59N 37°48' W 122°19'0 0.0
2018-Feb-10 17:29N 37°48' W 122°19'0 0.0
2018-Feb-10 16:59N 37°48' W 122°19'0 0.0
2018-Feb-10 16:29N 37°48' W 122°19'0 0.0
2018-Feb-10 15:59N 37°48' W 122°19'0 0.0
2018-Feb-10 15:29N 37°48' W 122°19'0 0.0
2018-Feb-10 15:01N 37°48' W 122°19'1 1.1
2018-Feb-10 14:30N 37°48' W 122°19'1 2.2
2018-Feb-10 14:00N 37°48' W 122°17'1 1.9
2018-Feb-10 13:30N 37°48' W 122°19'3 6.9
2018-Feb-10 13:00N 37°48' W 122°23'3 5.7
2018-Feb-10 12:30N 37°49' W 122°26'510.6
2018-Feb-10 12:00N 37°47' W 122°33'713.7
2018-Feb-10 11:30N 37°46' W 122°41'510.6
2018-Feb-10 11:00N 37°47' W 122°48'510.8
2018-Feb-10 10:30N 37°50' W 122°54'611.9
2018-Feb-10 10:00N 37°53' W 123°00'611.9
2018-Feb-10 09:30N 37°56' W 123°07'611.9
2018-Feb-10 09:00N 37°59' W 123°13'612.0
2018-Feb-10 08:30N 38°04' W 123°18'612.0
2018-Feb-10 08:00N 38°08' W 123°23'5 9.9
2018-Feb-10 07:30N 38°13' W 123°26'713.4
2018-Feb-10 07:00N 38°19' W 123°30'713.8
2018-Feb-10 06:30N 38°25' W 123°34'713.8
2018-Feb-10 06:00N 38°31' W 123°38'713.9
2018-Feb-10 05:31N 38°37' W 123°42'714.2
2018-Feb-10 05:00N 38°43' W 123°46'713.8
2018-Feb-10 04:30N 38°50' W 123°50'40613.8
2018-Feb-08 23:00N 45°31' W 125°07'714.4
2018-Feb-08 22:30N 45°39' W 125°07'2114.2
2018-Feb-08 21:00N 45°60' W 125°09'1414.3
2018-Feb-08 20:00N 46°14' W 125°10'1414.1
2018-Feb-08 19:00N 46°28' W 125°11'1414.2
2018-Feb-08 18:00N 46°42' W 125°12'10913.6
2018-Feb-08 10:00N 48°31' W 124°55'2113.9
2018-Feb-08 08:30N 48°25' W 124°24'2114.2
2018-Feb-08 07:00N 48°17' W 123°55'5413.4
2018-Feb-08 03:00N 48°02' W 122°37'917.0
2018-Feb-08 02:30N 47°55' W 122°29'1817.6
2018-Feb-08 01:30N 47°38' W 122°26'4 8.2
2018-Feb-08 01:00N 47°36' W 122°21'0 0.0
2018-Feb-08 00:30N 47°36' W 122°21'0 0.0
2018-Feb-07 23:59N 47°36' W 122°21'0 0.0
2018-Feb-07 23:28N 47°36' W 122°21'0 0.0
2018-Feb-07 22:58N 47°36' W 122°21'0 0.0
2018-Feb-07 22:25N 47°36' W 122°21'0 0.0
2018-Feb-07 21:55N 47°36' W 122°21'0 0.0
2018-Feb-07 21:25N 47°36' W 122°21'0 0.0
2018-Feb-07 09:28N 47°36' W 122°21'0 0.0
2018-Feb-07 08:58N 47°36' W 122°21'0 0.0
2018-Feb-07 08:28N 47°36' W 122°21'0 0.0
2018-Feb-07 07:58N 47°36' W 122°21'0 0.0
2018-Feb-07 07:28N 47°36' W 122°21'0 0.0
2018-Feb-07 06:58N 47°36' W 122°21'0 0.0
2018-Feb-07 06:28N 47°36' W 122°21'0 0.0
2018-Feb-07 05:58N 47°36' W 122°21'0 0.0
2018-Feb-07 05:28N 47°36' W 122°21'0 0.0
2018-Feb-07 04:58N 47°36' W 122°21'0 0.0
2018-Feb-07 03:40N 47°36' W 122°21'0 0.0
2018-Feb-07 03:28N 47°36' W 122°21'0 0.0
2018-Feb-07 02:49N 47°36' W 122°21'0 0.0
2018-Feb-07 02:13N 47°36' W 122°21'0 0.0
2018-Feb-07 01:58N 47°36' W 122°21'0 0.2
2018-Feb-07 01:30N 47°36' W 122°21'2 3.8
2018-Feb-07 01:00N 47°37' W 122°23'612.9
2018-Feb-07 00:30N 47°42' W 122°27'919.0
2018-Feb-07 00:00N 47°52' W 122°29'917.5
2018-Feb-06 23:30N 47°59' W 122°36'917.1
2018-Feb-06 22:58N 48°07' W 122°42'817.4
2018-Feb-06 22:30N 48°11' W 122°53'918.6
2018-Feb-06 22:00N 48°12' W 123°06'1611.5
2018-Feb-06 20:39N 48°16' W 123°29'519.4
2018-Feb-06 20:23N 48°21' W 123°26'4 9.4
2018-Feb-06 19:55N 48°23' W 123°20'716.4
2018-Feb-06 19:30N 48°27' W 123°12'1020.0
2018-Feb-06 19:00N 48°37' W 123°14'815.5
2018-Feb-06 18:30N 48°44' W 123°09'815.7
2018-Feb-06 18:00N 48°51' W 123°02'918.0
2018-Feb-06 17:30N 48°57' W 123°11'4 8.1
2018-Feb-06 17:00N 49°01' W 123°09'0 0.1
2018-Feb-06 15:50N 49°01' W 123°09'0 0.0
2018-Feb-06 07:16N 49°01' W 123°09'0 0.0
2018-Feb-05 17:28N 49°01' W 123°09'0 0.0
2018-Feb-05 16:55N 49°01' W 123°09'0 0.0
2018-Feb-05 16:28N 49°01' W 123°09'0 0.0
2018-Feb-05 15:55N 49°01' W 123°09'0 0.0
2018-Feb-05 15:25N 49°01' W 123°09'0 0.0
2018-Feb-05 14:55N 49°01' W 123°09'0 0.0
2018-Feb-05 14:28N 49°01' W 123°09'0 0.0
2018-Feb-05 13:58N 49°01' W 123°09'4510.1
2018-Feb-05 09:30N 48°18' W 123°26'5 9.5
2018-Feb-05 09:01N 48°14' W 123°31'711.3
2018-Feb-05 08:25N 48°14' W 123°40'511.7
2018-Feb-05 08:00N 48°14' W 123°48'611.6
2018-Feb-05 07:29N 48°14' W 123°57'611.7
2018-Feb-05 07:01N 48°16' W 124°04'611.7
2018-Feb-05 06:31N 48°19' W 124°12'1211.9
2018-Feb-05 05:30N 48°24' W 124°29'612.1
2018-Feb-05 05:01N 48°26' W 124°37'612.0
2018-Feb-05 04:30N 48°29' W 124°45'612.1
2018-Feb-05 04:01N 48°29' W 124°54'611.4
2018-Feb-05 03:29N 48°25' W 125°02'612.3
2018-Feb-05 03:00N 48°20' W 125°06'712.6
2018-Feb-05 02:28N 48°14' W 125°09'812.4
2018-Feb-05 01:50N 48°06' W 125°13'7412.2
2018-Feb-04 19:48N 46°53' W 125°14'3 9.5
2018-Feb-04 19:31N 46°50' W 125°14'3 5.3
2018-Feb-04 18:59N 46°47' W 125°14'612.5
2018-Feb-04 18:30N 46°41' W 125°14'612.6
2018-Feb-04 18:00N 46°35' W 125°13'612.6
2018-Feb-04 17:31N 46°28' W 125°13'2512.5
2018-Feb-04 15:31N 46°03' W 125°11'612.9
2018-Feb-04 15:01N 45°57' W 125°10'612.5
2018-Feb-04 14:30N 45°51' W 125°10'612.5
2018-Feb-04 14:01N 45°44' W 125°09'612.4
2018-Feb-04 13:31N 45°38' W 125°09'612.4
2018-Feb-04 13:01N 45°32' W 125°08'612.4
2018-Feb-04 12:30N 45°26' W 125°08'612.4
2018-Feb-04 12:00N 45°19' W 125°07'712.2
2018-Feb-04 11:25N 45°12' W 125°07'1812.3
2018-Feb-04 09:59N 44°55' W 125°05'1312.3
2018-Feb-04 08:56N 44°42' W 125°04'3712.3
2018-Feb-04 05:58N 44°05' W 125°01'  

Dump ship's entire track history